Time;durP1;ratioP1;P1;durP2;ratioP2;P2;SDS_P1;SDS_P2;PMS_P1;PMS_P2;Temp;Humidity;BMP_temperature;BMP_pressure;BME280_temperature;BME280_humidity;BME280_pressure;Samples;Min_cycle;Max_cycle;Signal;HPM_P1;HPM_P2
2023/06/01 00:01:37;;;;;;;180.43;64.57;;;;;;;18.57;50.36;101996.69;5012444;28;20168;-74
2023/06/01 00:04:02;;;;;;;188.27;66.20;;;;;;;18.56;49.87;101992.28;4994891;28;20376;-74
2023/06/01 00:06:28;;;;;;;176.75;62.90;;;;;;;18.56;50.31;101992.28;5011272;28;20132;-74
2023/06/01 00:08:55;;;;;;;180.52;65.72;;;;;;;18.56;49.61;101987.84;5012853;28;20463;-74
2023/06/01 00:11:21;;;;;;;199.13;68.32;;;;;;;18.54;50.16;101987.03;4995168;28;20030;-75
2023/06/01 00:13:48;;;;;;;182.63;64.32;;;;;;;18.55;49.66;101990.53;5012825;28;20395;-75
2023/06/01 00:16:13;;;;;;;173.10;64.00;;;;;;;18.54;49.87;101994.09;5007650;28;20091;-75
2023/06/01 00:18:38;;;;;;;172.43;62.80;;;;;;;18.54;50.17;101994.97;4993287;28;20022;-75
2023/06/01 00:21:04;;;;;;;182.48;64.85;;;;;;;18.53;49.91;101987.94;5011424;28;20025;-75
2023/06/01 00:23:29;;;;;;;180.10;65.88;;;;;;;18.54;50.20;101988.81;5011764;28;20483;-76
2023/06/01 00:25:54;;;;;;;175.35;63.58;;;;;;;18.54;50.17;101994.09;5001578;28;20092;-75
2023/06/01 00:28:20;;;;;;;179.70;63.80;;;;;;;18.54;49.63;101991.44;4996038;28;20034;-76
2023/06/01 00:30:45;;;;;;;181.40;64.65;;;;;;;18.53;50.33;101984.44;5034041;28;20025;-76
2023/06/01 00:33:10;;;;;;;178.57;64.35;;;;;;;18.51;50.11;101987.09;4992713;28;20022;-75
2023/06/01 00:35:36;;;;;;;179.15;65.07;;;;;;;18.53;50.25;101992.38;5000826;28;20491;-76
2023/06/01 00:38:01;;;;;;;183.18;65.60;;;;;;;18.52;50.15;101985.34;5011371;28;20029;-75
2023/06/01 00:40:26;;;;;;;184.18;64.65;;;;;;;18.51;49.87;101986.25;4979418;28;20046;-75
2023/06/01 00:42:52;;;;;;;181.25;63.50;;;;;;;18.52;50.19;101988.00;5030848;28;20045;-76
2023/06/01 00:45:17;;;;;;;177.45;65.90;;;;;;;18.52;50.14;101995.94;4992610;28;20033;-75
2023/06/01 00:47:43;;;;;;;179.98;64.78;;;;;;;18.52;50.08;101998.56;5012649;28;20052;-75
2023/06/01 00:50:10;;;;;;;181.63;63.97;;;;;;;18.50;49.71;101992.44;5010039;28;20026;-76
2023/06/01 00:52:36;;;;;;;178.05;64.90;;;;;;;18.51;49.87;101992.41;5016256;28;20415;-75
2023/06/01 00:55:03;;;;;;;185.75;66.03;;;;;;;18.50;50.28;101984.50;5007640;28;20022;-75
2023/06/01 00:57:28;;;;;;;173.57;62.83;;;;;;;18.50;49.86;101981.88;4986130;28;20396;-75
2023/06/01 00:59:54;;;;;;;189.68;66.10;;;;;;;18.50;50.19;101979.22;4997859;28;20028;-75
2023/06/01 01:02:21;;;;;;;181.73;64.28;;;;;;;18.49;49.30;101978.38;4995133;28;20435;-75
2023/06/01 01:04:52;;;;;;;183.93;65.85;;;;;;;18.51;49.85;101975.66;5003284;28;20026;-75
2023/06/01 01:08:02;;;;;;;176.57;62.92;;;;;;;18.49;49.76;101974.88;5008654;28;20030;-76
2023/06/01 01:10:51;;;;;;;175.60;62.78;;;;;;;18.49;49.54;101970.44;4998337;28;20084;-75
2023/06/01 01:13:35;;;;;;;181.30;63.80;;;;;;;18.49;50.27;101970.44;5002984;28;20049;-75
2023/06/01 01:16:12;;;;;;;182.38;64.45;;;;;;;18.46;49.87;101967.88;5001256;28;20057;-76
2023/06/01 01:18:54;;;;;;;180.48;64.47;;;;;;;18.48;49.97;101962.53;5021590;28;20029;-76
2023/06/01 01:21:28;;;;;;;200.00;67.93;;;;;;;18.46;50.26;101965.25;4991578;28;20087;-76
2023/06/01 01:24:14;;;;;;;183.27;64.13;;;;;;;18.47;50.30;101972.22;5012610;28;20443;-76
2023/06/01 01:27:01;;;;;;;184.07;64.50;;;;;;;18.47;49.61;101971.38;5007244;28;20033;-76
2023/06/01 01:29:29;;;;;;;185.40;66.07;;;;;;;18.46;50.27;101969.63;4998621;28;20030;-76
2023/06/01 01:31:56;;;;;;;181.02;64.57;;;;;;;18.46;50.31;101969.63;4988392;28;20495;-76
2023/06/01 01:34:22;;;;;;;189.02;65.57;;;;;;;18.46;50.00;101969.63;4994070;28;20045;-75
2023/06/01 01:36:47;;;;;;;177.05;62.83;;;;;;;18.45;49.96;101959.97;4999090;28;20053;-76
2023/06/01 01:39:13;;;;;;;177.18;64.35;;;;;;;18.45;50.09;101963.50;4992393;28;20068;-76
2023/06/01 01:41:38;;;;;;;179.98;64.60;;;;;;;18.44;49.78;101968.84;5018219;28;20025;-76
2023/06/01 01:44:05;;;;;;;185.90;66.50;;;;;;;18.40;49.88;101955.69;5003557;28;20030;-76
2023/06/01 01:46:30;;;;;;;182.20;65.22;;;;;;;18.45;49.57;101962.59;5004522;28;20490;-76
2023/06/01 01:49:14;;;;;;;180.93;64.93;;;;;;;18.44;49.31;101966.19;5030887;28;20039;-76
2023/06/01 01:52:08;;;;;;;178.45;64.63;;;;;;;18.42;50.07;101964.44;5010217;28;20021;-76
2023/06/01 01:54:37;;;;;;;179.20;63.15;;;;;;;18.42;49.95;101959.16;4995951;28;20022;-75
2023/06/01 01:57:03;;;;;;;179.00;63.92;;;;;;;18.43;49.95;101954.72;4992574;28;20062;-76
2023/06/01 01:59:28;;;;;;;178.05;63.35;;;;;;;18.42;50.04;101963.59;4993532;28;20049;-75
2023/06/01 02:01:54;;;;;;;173.07;63.58;;;;;;;18.41;49.58;101949.47;5005532;28;20048;-75
2023/06/01 02:04:19;;;;;;;193.18;66.55;;;;;;;18.40;49.46;101955.69;4993865;28;20014;-75
2023/06/01 02:06:45;;;;;;;177.80;63.70;;;;;;;18.41;49.75;101952.13;4979388;28;20026;-74
2023/06/01 02:09:10;;;;;;;180.85;65.57;;;;;;;18.39;49.88;101943.38;4999953;28;20081;-75
2023/06/01 02:11:36;;;;;;;181.50;63.63;;;;;;;18.41;50.10;101946.84;5007433;28;20021;-76
2023/06/01 02:14:02;;;;;;;181.73;64.75;;;;;;;18.40;49.68;101945.09;4987873;28;20061;-75
2023/06/01 02:16:27;;;;;;;176.75;64.63;;;;;;;18.39;50.09;101951.31;4987685;28;20057;-76
2023/06/01 02:18:53;;;;;;;178.77;64.88;;;;;;;18.39;49.71;101948.69;5018788;28;20551;-76
2023/06/01 02:21:18;;;;;;;179.93;64.03;;;;;;;18.38;49.64;101941.63;5011688;28;20025;-76
2023/06/01 02:23:44;;;;;;;178.85;64.50;;;;;;;18.38;49.72;101941.63;4991690;28;20030;-75
2023/06/01 02:26:10;;;;;;;177.38;64.00;;;;;;;18.36;49.72;101935.50;4991856;28;20030;-76
2023/06/01 02:28:39;;;;;;;182.50;66.55;;;;;;;18.38;49.74;101940.78;5002028;28;20475;-75
2023/06/01 02:31:05;;;;;;;180.70;64.32;;;;;;;18.37;50.20;101939.91;5004848;28;20080;-76
2023/06/01 02:33:30;;;;;;;181.20;65.70;;;;;;;18.36;50.24;101935.50;5008696;28;20022;-75
2023/06/01 02:35:56;;;;;;;177.98;63.08;;;;;;;18.37;49.74;101939.03;4984452;28;20081;-75
2023/06/01 02:38:21;;;;;;;179.07;66.45;;;;;;;18.37;49.70;101934.59;4982200;28;20022;-76
2023/06/01 02:40:46;;;;;;;193.45;66.82;;;;;;;18.37;49.52;101931.09;5018768;28;20510;-75
2023/06/01 02:43:12;;;;;;;185.55;65.10;;;;;;;18.35;49.55;101925.88;5032474;28;20021;-76
2023/06/01 02:45:38;;;;;;;179.90;63.65;;;;;;;18.35;49.95;101923.22;5028132;28;20045;-75
2023/06/01 02:48:04;;;;;;;186.43;65.32;;;;;;;18.36;49.87;101921.44;5022064;28;20022;-76
2023/06/01 02:50:29;;;;;;;179.27;64.57;;;;;;;18.36;49.49;101924.94;5031771;28;20422;-76
2023/06/01 02:52:54;;;;;;;181.48;66.45;;;;;;;18.35;49.53;101915.28;5030813;28;20091;-76
2023/06/01 02:55:20;;;;;;;180.65;66.18;;;;;;;18.35;49.41;101925.88;5026784;28;20037;-76
2023/06/01 02:57:45;;;;;;;178.65;65.20;;;;;;;18.33;49.26;101917.09;5005645;28;20034;-76
2023/06/01 03:00:15;;;;;;;179.32;64.45;;;;;;;18.34;49.46;101918.84;5002903;28;20048;-76
2023/06/01 03:02:45;;;;;;;177.68;63.35;;;;;;;18.34;49.74;101917.97;5014389;28;20104;-76
2023/06/01 03:05:14;;;;;;;182.20;65.75;;;;;;;18.35;50.10;101917.06;5005629;28;20100;-75
2023/06/01 03:07:46;;;;;;;185.32;64.40;;;;;;;18.34;49.17;101918.84;5030084;28;20026;-75
2023/06/01 03:10:12;;;;;;;182.65;64.82;;;;;;;18.35;49.53;101919.69;5011530;28;20029;-76
2023/06/01 03:12:37;;;;;;;178.93;64.65;;;;;;;18.33;49.72;101927.69;5016855;28;20033;-76
2023/06/01 03:15:04;;;;;;;182.32;63.78;;;;;;;18.35;49.72;101917.94;4983557;28;20368;-76
2023/06/01 03:17:29;;;;;;;178.63;62.15;;;;;;;18.34;49.48;101915.34;4996884;28;20117;-76
2023/06/01 03:19:55;;;;;;;187.68;64.57;;;;;;;18.32;49.67;101915.34;5002682;28;20117;-76
2023/06/01 03:22:20;;;;;;;180.90;66.43;;;;;;;18.33;49.87;101906.53;5009808;28;20399;-76
2023/06/01 03:24:49;;;;;;;182.77;63.30;;;;;;;18.34;49.89;101913.56;5009449;28;20041;-76
2023/06/01 03:27:15;;;;;;;176.55;63.53;;;;;;;18.33;49.71;101903.88;4979886;28;20034;-76
2023/06/01 03:29:40;;;;;;;181.45;66.00;;;;;;;18.32;49.68;101896.84;5008640;28;20068;-75
2023/06/01 03:32:06;;;;;;;178.23;63.58;;;;;;;18.33;49.47;101895.09;5006633;28;20032;-76
2023/06/01 03:34:32;;;;;;;179.07;66.43;;;;;;;18.34;49.75;101905.63;5010350;28;20033;-75
2023/06/01 03:36:58;;;;;;;177.60;63.00;;;;;;;18.31;49.49;101896.88;4994693;28;20076;-76
2023/06/01 03:39:23;;;;;;;177.73;63.33;;;;;;;18.31;49.72;101904.81;5024012;28;20486;-76
2023/06/01 03:41:48;;;;;;;184.35;64.07;;;;;;;18.34;49.44;101907.41;5008378;28;20026;-75
2023/06/01 03:44:14;;;;;;;183.75;67.32;;;;;;;18.34;49.78;101905.63;5010504;28;20032;-75
2023/06/01 03:46:40;;;;;;;180.10;63.88;;;;;;;18.35;49.75;101906.47;4987222;28;20030;-76
2023/06/01 03:49:05;;;;;;;181.15;63.70;;;;;;;18.35;49.81;101904.72;5006136;28;20014;-75
2023/06/01 03:51:31;;;;;;;174.65;62.88;;;;;;;18.36;49.95;101901.13;5032188;28;20194;-75
2023/06/01 03:53:56;;;;;;;182.70;67.18;;;;;;;18.36;49.72;101898.47;5008091;28;20053;-76
2023/06/01 03:56:22;;;;;;;189.10;66.10;;;;;;;18.35;49.21;101894.13;5000399;28;20034;-76
2023/06/01 03:58:47;;;;;;;176.93;64.32;;;;;;;18.37;49.17;101891.44;4983321;28;20491;-76
2023/06/01 04:01:16;;;;;;;177.90;62.97;;;;;;;18.38;49.29;101888.75;4997761;28;20048;-75
2023/06/01 04:03:43;;;;;;;176.70;61.90;;;;;;;18.38;49.47;101883.44;4993234;28;20021;-75
2023/06/01 04:06:12;;;;;;;182.30;66.55;;;;;;;18.38;48.99;101886.09;5003549;28;20475;-76
2023/06/01 04:08:42;;;;;;;177.82;62.60;;;;;;;18.40;49.18;101886.91;4985514;28;20022;-76
2023/06/01 04:11:07;;;;;;;189.65;64.78;;;;;;;18.39;48.75;101890.47;4996072;28;20083;-76
2023/06/01 04:13:32;;;;;;;180.07;65.85;;;;;;;18.40;48.92;101886.91;5008845;28;20023;-76
2023/06/01 04:15:58;;;;;;;179.70;64.28;;;;;;;18.40;49.57;101886.03;4994527;28;20025;-75
2023/06/01 04:18:23;;;;;;;187.20;63.65;;;;;;;18.39;49.17;101887.84;5012218;28;20116;-75
2023/06/01 04:20:48;;;;;;;188.55;65.80;;;;;;;18.39;49.19;101885.19;5007398;28;20022;-75
2023/06/01 04:23:14;;;;;;;183.55;65.18;;;;;;;18.41;49.06;101899.22;4992080;28;20061;-75
2023/06/01 04:25:43;;;;;;;183.73;64.53;;;;;;;18.43;48.91;101880.66;5030899;28;20104;-75
2023/06/01 04:28:10;;;;;;;184.10;67.07;;;;;;;18.42;49.22;101879.78;4995786;28;20049;-75
2023/06/01 04:30:35;;;;;;;178.93;63.03;;;;;;;18.44;48.92;101878.91;5007691;28;20044;-76
2023/06/01 04:33:01;;;;;;;182.95;64.25;;;;;;;18.46;49.20;101879.69;5011409;28;20479;-76
2023/06/01 04:35:26;;;;;;;179.13;63.35;;;;;;;18.46;48.85;101879.69;5007419;28;20030;-76
2023/06/01 04:37:52;;;;;;;173.02;63.45;;;;;;;18.48;49.08;101880.53;5011305;28;20052;-76
2023/06/01 04:40:17;;;;;;;183.80;65.10;;;;;;;18.48;49.01;101884.03;5006772;28;20109;-76
2023/06/01 04:42:48;;;;;;;186.27;64.80;;;;;;;18.48;48.94;101888.47;5012489;28;20022;-76
2023/06/01 04:45:15;;;;;;;187.85;64.32;;;;;;;18.48;48.41;101878.75;4998217;28;20479;-76
2023/06/01 04:47:44;;;;;;;178.30;63.95;;;;;;;18.51;48.76;101888.38;5013847;28;20021;-76
2023/06/01 04:50:11;;;;;;;175.45;63.90;;;;;;;18.51;48.68;101872.50;5006429;28;20360;-75
2023/06/01 04:52:37;;;;;;;177.10;63.17;;;;;;;18.51;49.07;101877.78;4999040;28;20407;-75
2023/06/01 04:55:04;;;;;;;181.95;63.22;;;;;;;18.52;48.48;101879.53;5006199;28;20017;-76
2023/06/01 04:57:30;;;;;;;181.75;68.20;;;;;;;18.52;48.40;101875.09;5008105;28;20025;-76
2023/06/01 04:59:56;;;;;;;189.45;66.82;;;;;;;18.54;48.86;101875.03;5004179;28;20036;-75
2023/06/01 05:02:23;;;;;;;181.93;63.65;;;;;;;18.52;48.27;101867.16;5035128;28;20480;-76
2023/06/01 05:04:48;;;;;;;183.15;63.53;;;;;;;18.55;48.30;101864.41;4987326;28;20030;-76
2023/06/01 05:07:14;;;;;;;183.40;64.20;;;;;;;18.57;48.64;101862.59;5005194;28;20028;-75
2023/06/01 05:09:39;;;;;;;180.00;64.22;;;;;;;18.59;48.30;101852.81;5032463;22;20052;-75
2023/06/01 05:12:06;;;;;;;191.30;64.90;;;;;;;18.61;48.62;101863.38;5013927;28;20029;-74
2023/06/01 05:14:31;;;;;;;172.40;61.30;;;;;;;18.62;48.12;101857.13;5020760;28;20045;-74
2023/06/01 05:16:57;;;;;;;179.55;64.18;;;;;;;18.64;48.20;101852.69;5020989;28;20469;-74
2023/06/01 05:19:22;;;;;;;179.80;62.58;;;;;;;18.65;48.40;101854.41;5012545;28;20041;-75
2023/06/01 05:21:47;;;;;;;179.57;64.25;;;;;;;18.65;48.24;101857.06;4994572;28;20446;-75
2023/06/01 05:24:13;;;;;;;196.45;67.38;;;;;;;18.66;48.03;101855.28;4997888;28;20490;-75
2023/06/01 05:26:38;;;;;;;174.65;64.18;;;;;;;18.67;47.95;101852.56;5003298;28;20057;-75
2023/06/01 05:29:03;;;;;;;181.48;62.95;;;;;;;18.66;48.01;101856.13;4999725;28;20058;-75
2023/06/01 05:31:29;;;;;;;181.52;63.80;;;;;;;18.65;48.48;101850.88;4990845;28;20201;-75
2023/06/01 05:33:55;;;;;;;181.30;63.80;;;;;;;18.63;48.14;101845.66;4993655;28;20391;-74
2023/06/01 05:36:20;;;;;;;185.45;64.13;;;;;;;18.62;48.18;101843.91;4993386;28;20033;-74
2023/06/01 05:38:46;;;;;;;182.98;65.07;;;;;;;18.63;48.29;101848.28;5000304;28;20034;-73
2023/06/01 05:41:11;;;;;;;191.43;65.05;;;;;;;18.66;48.33;101853.47;4993758;28;20026;-73
2023/06/01 05:43:37;;;;;;;180.23;64.03;;;;;;;18.67;48.26;101849.06;4996939;28;20022;-74
2023/06/01 05:46:02;;;;;;;179.38;64.57;;;;;;;18.69;48.15;101853.41;4988201;28;20030;-74
2023/06/01 05:48:28;;;;;;;203.27;67.75;;;;;;;18.72;48.01;101845.34;4989104;28;20411;-74
2023/06/01 05:50:53;;;;;;;184.30;64.22;;;;;;;18.73;48.06;101841.81;4977462;28;20109;-74
2023/06/01 05:53:18;;;;;;;204.55;68.80;;;;;;;18.77;47.57;101852.28;4989062;28;20077;-74
2023/06/01 05:55:44;;;;;;;182.95;64.25;;;;;;;18.77;47.98;101844.34;4988752;28;20166;-74
2023/06/01 05:58:10;;;;;;;184.48;65.38;;;;;;;18.80;48.09;101852.19;4991512;28;20097;-73
2023/06/01 06:00:35;;;;;;;185.52;66.05;;;;;;;18.80;47.88;101852.19;4990602;28;20026;-73
2023/06/01 06:03:00;;;;;;;184.20;64.90;;;;;;;18.82;47.81;101855.66;4993097;28;20098;-74
2023/06/01 06:05:26;;;;;;;180.27;64.95;;;;;;;18.84;47.48;101853.81;4991049;28;20019;-74
2023/06/01 06:07:51;;;;;;;184.50;65.50;;;;;;;18.84;47.69;101853.81;4990220;28;20223;-72
2023/06/01 06:10:16;;;;;;;183.68;65.93;;;;;;;18.85;47.66;101856.41;5004645;28;20492;-74
2023/06/01 06:12:42;;;;;;;182.27;64.50;;;;;;;18.85;47.30;101851.09;4974019;28;20030;-73
2023/06/01 06:15:08;;;;;;;185.55;64.30;;;;;;;18.87;47.88;101848.41;4990056;28;20033;-74
2023/06/01 06:17:33;;;;;;;206.48;68.60;;;;;;;18.88;47.79;101848.41;4989983;28;20026;-75
2023/06/01 06:19:59;;;;;;;183.95;64.05;;;;;;;18.88;47.54;101850.19;4995523;28;20030;-74
2023/06/01 06:22:25;;;;;;;183.73;63.78;;;;;;;18.88;47.84;101855.47;4994053;28;20023;-74
2023/06/01 06:24:50;;;;;;;184.57;63.30;;;;;;;18.87;47.67;101853.69;4994702;28;20391;-74
2023/06/01 06:27:15;;;;;;;177.38;63.65;;;;;;;18.84;47.60;101852.03;4995432;28;20044;-74
2023/06/01 06:29:41;;;;;;;180.48;63.55;;;;;;;18.86;47.71;101852.00;4990652;28;20527;-74
2023/06/01 06:32:06;;;;;;;187.18;64.30;;;;;;;18.86;47.74;101846.69;4991861;28;20025;-74
2023/06/01 06:34:35;;;;;;;180.20;64.65;;;;;;;18.88;47.32;101851.06;4994114;28;20089;-74
2023/06/01 06:37:07;;;;;;;186.00;64.97;;;;;;;18.89;47.07;101854.56;4990523;28;20026;-75
2023/06/01 06:39:33;;;;;;;176.25;63.47;;;;;;;18.90;47.25;101853.66;4975834;28;20030;-74
2023/06/01 06:42:00;;;;;;;175.77;64.07;;;;;;;18.91;47.20;101847.44;5008230;28;20026;-75
2023/06/01 06:44:26;;;;;;;189.13;66.05;;;;;;;18.91;47.59;101844.81;4985492;28;20102;-74
2023/06/01 06:46:51;;;;;;;213.50;70.70;;;;;;;18.91;47.53;101847.44;4988309;28;20034;-74
2023/06/01 06:49:18;;;;;;;183.85;65.20;;;;;;;18.91;47.01;101842.16;4990422;28;20022;-74
2023/06/01 06:51:43;;;;;;;188.90;64.22;;;;;;;18.90;47.30;101833.34;4992363;28;20030;-74
2023/06/01 06:54:09;;;;;;;194.73;67.45;;;;;;;18.94;47.41;101828.81;5008381;28;20037;-76
2023/06/01 06:56:34;;;;;;;177.23;63.10;;;;;;;18.98;46.83;101840.16;4972787;28;20062;-76
2023/06/01 06:58:59;;;;;;;178.80;63.30;;;;;;;19.01;46.57;101843.56;4992058;28;20033;-75
2023/06/01 07:01:25;;;;;;;201.50;67.22;;;;;;;19.04;46.63;101845.25;4993956;28;20423;-75
2023/06/01 07:03:51;;;;;;;183.45;64.10;;;;;;;19.07;46.82;101846.03;4991394;28;20464;-77
2023/06/01 07:06:17;;;;;;;184.02;63.50;;;;;;;19.11;46.80;101840.63;4991835;28;20041;-76
2023/06/01 07:08:42;;;;;;;183.52;65.30;;;;;;;19.11;47.09;101845.91;4994145;28;20034;-77
2023/06/01 07:11:08;;;;;;;179.73;62.60;;;;;;;19.12;46.86;101847.66;4988051;28;20026;-77
2023/06/01 07:13:33;;;;;;;184.57;64.32;;;;;;;19.13;46.83;101849.34;4987746;28;20391;-75
2023/06/01 07:15:58;;;;;;;190.85;64.95;;;;;;;19.14;46.45;101845.78;4991709;28;20026;-75
2023/06/01 07:18:24;;;;;;;182.98;64.15;;;;;;;19.15;47.00;101848.38;4989639;28;20057;-75
2023/06/01 07:20:49;;;;;;;202.52;67.10;;;;;;;19.17;46.26;101843.03;4994123;28;20080;-75
2023/06/01 07:23:16;;;;;;;198.57;66.22;;;;;;;19.19;46.80;101849.16;4988331;28;20034;-76
2023/06/01 07:25:41;;;;;;;187.27;64.53;;;;;;;19.19;46.40;101843.88;5004269;28;20022;-77
2023/06/01 07:28:07;;;;;;;197.55;67.13;;;;;;;19.22;46.16;101849.06;4993801;28;20033;-76
2023/06/01 07:30:33;;;;;;;180.45;63.35;;;;;;;19.22;46.93;101854.34;5000880;28;20065;-77
2023/06/01 07:32:58;;;;;;;178.93;63.85;;;;;;;19.19;46.52;101846.50;5003585;28;20022;-77
2023/06/01 07:35:24;;;;;;;182.65;64.68;;;;;;;19.20;46.83;101850.91;5008945;28;20030;-79
2023/06/01 07:37:49;;;;;;;184.40;64.55;;;;;;;19.24;46.59;101848.09;5000542;28;20533;-79
2023/06/01 07:40:15;;;;;;;182.52;63.35;;;;;;;19.25;46.41;101833.03;5004038;28;20022;-79
2023/06/01 07:42:40;;;;;;;181.05;63.47;;;;;;;19.26;46.56;101848.03;4999505;28;20022;-79
2023/06/01 07:45:07;;;;;;;184.70;65.30;;;;;;;19.26;46.69;101848.03;4991841;28;20038;-79
2023/06/01 07:47:33;;;;;;;183.80;63.50;;;;;;;19.25;46.10;101839.22;4997127;28;20168;-79
2023/06/01 07:49:58;;;;;;;181.50;63.83;;;;;;;19.25;46.16;101838.34;4997057;28;20054;-80
2023/06/01 07:52:24;;;;;;;185.98;65.13;;;;;;;19.29;46.53;101837.31;4996663;28;20022;-79
2023/06/01 07:54:50;;;;;;;182.27;63.30;;;;;;;19.31;46.12;101838.16;4996498;28;20022;-79
2023/06/01 07:57:15;;;;;;;180.75;63.60;;;;;;;19.36;46.38;101835.31;5007360;28;20036;-79
2023/06/01 07:59:40;;;;;;;183.98;64.85;;;;;;;19.39;45.98;101841.38;4998579;28;20437;-78
2023/06/01 08:02:06;;;;;;;175.65;64.93;;;;;;;19.40;46.13;101840.47;5000489;28;20026;-76
2023/06/01 08:04:33;;;;;;;184.95;65.93;;;;;;;19.42;45.92;101838.63;4998950;28;20464;-76
2023/06/01 08:06:59;;;;;;;178.45;64.35;;;;;;;19.47;46.18;101834.94;4998677;28;20183;-76
2023/06/01 08:09:24;;;;;;;182.98;65.18;;;;;;;19.48;46.16;101840.19;5004512;28;20068;-76
2023/06/01 08:11:50;;;;;;;190.38;64.57;;;;;;;19.47;45.88;101835.81;4996796;28;20442;-76
2023/06/01 08:14:16;;;;;;;179.68;63.95;;;;;;;19.46;46.09;101831.44;4981847;28;20117;-77
2023/06/01 08:16:42;;;;;;;193.35;66.93;;;;;;;19.48;45.93;101841.97;4980302;28;20092;-77
2023/06/01 08:19:07;;;;;;;182.48;64.32;;;;;;;19.47;46.26;101838.47;5012221;28;20034;-76
2023/06/01 08:21:34;;;;;;;185.25;66.45;;;;;;;19.47;45.86;101833.19;5006275;28;20034;-77
2023/06/01 08:24:01;;;;;;;179.52;64.63;;;;;;;19.47;46.32;101837.59;4982735;28;20054;-76
2023/06/01 08:26:27;;;;;;;178.98;64.50;;;;;;;19.47;46.24;101843.78;4988771;28;20030;-76
2023/06/01 08:28:52;;;;;;;179.55;64.47;;;;;;;19.50;46.21;101843.66;5017120;28;20102;-77
2023/06/01 08:31:23;;;;;;;179.55;63.90;;;;;;;19.51;45.88;101839.22;5004381;28;20519;-77
2023/06/01 08:33:50;;;;;;;179.82;64.75;;;;;;;19.52;45.78;101835.66;5003150;28;20034;-76
2023/06/01 08:36:17;;;;;;;190.48;65.80;;;;;;;19.57;45.87;101831.91;5025797;28;20059;-77
2023/06/01 08:38:43;;;;;;;182.32;64.93;;;;;;;19.61;45.39;101830.03;5006782;28;20029;-76
2023/06/01 08:41:24;;;;;;;222.02;71.43;;;;;;;19.61;46.12;101835.31;5010607;28;20193;-77
2023/06/01 08:43:55;;;;;;;194.90;65.47;;;;;;;19.66;47.08;101832.50;5011482;28;20464;-75
2023/06/01 08:46:21;;;;;;;220.48;70.70;;;;;;;19.70;46.62;101835.00;4995546;28;20097;-77
2023/06/01 08:48:50;;;;;;;192.48;65.80;;;;;;;19.73;46.88;101834.88;4975445;28;20027;-76
2023/06/01 08:51:16;;;;;;;192.98;64.45;;;;;;;19.76;46.56;101834.75;4995573;28;20373;-76
2023/06/01 08:53:43;;;;;;;190.00;64.35;;;;;;;19.77;46.47;101841.78;4991924;28;20098;-76
2023/06/01 08:56:09;;;;;;;205.55;66.15;;;;;;;19.83;46.36;101846.03;4990963;28;20022;-77
2023/06/01 08:58:36;;;;;;;197.57;66.70;;;;;;;19.91;46.62;101843.09;5006782;28;20033;-77
2023/06/01 09:01:02;;;;;;;186.25;66.63;;;;;;;19.96;46.44;101834.97;4973007;28;20034;-79
2023/06/01 09:03:27;;;;;;;183.45;63.72;;;;;;;20.02;45.94;101840.06;4998160;28;20566;-77
2023/06/01 09:05:52;;;;;;;189.20;64.88;;;;;;;20.05;46.23;101835.47;4995293;28;20034;-75
2023/06/01 09:08:18;;;;;;;184.45;65.00;;;;;;;20.07;45.99;101844.25;4981951;28;20049;-77
2023/06/01 09:10:43;;;;;;;187.75;70.45;;;;;;;20.05;46.12;101832.81;4995544;28;20053;-78
2023/06/01 09:13:08;;;;;;;179.95;64.05;;;;;;;20.09;46.32;101836.25;5006222;28;20157;-78
2023/06/01 09:15:34;;;;;;;182.07;65.63;;;;;;;20.16;46.00;101834.22;4972202;28;20050;-77
2023/06/01 09:18:10;;;;;;;188.75;67.32;;;;;;;20.21;46.02;101843.72;4988116;28;20034;-77
2023/06/01 09:20:37;;;;;;;189.27;70.05;;;;;;;20.34;45.86;101841.47;4992792;28;20033;-76
2023/06/01 09:23:02;;;;;;;185.25;67.90;;;;;;;20.47;45.36;101841.84;4999204;28;20029;-76
2023/06/01 09:25:29;;;;;;;193.80;69.07;;;;;;;20.59;45.27;101845.81;5012127;28;20038;-76
2023/06/01 09:27:56;;;;;;;189.10;69.38;;;;;;;20.78;44.80;101835.34;4994380;28;20044;-77
2023/06/01 09:30:23;;;;;;;186.02;67.10;;;;;;;20.90;44.53;101839.25;4996725;28;20022;-76
2023/06/01 09:32:53;;;;;;;197.90;66.80;;;;;;;21.12;44.07;101839.25;4990826;28;20022;-77
2023/06/01 09:35:43;;;;;;;191.50;69.70;;;;;;;21.16;43.73;101832.88;4996252;28;20483;-77
2023/06/01 09:38:11;;;;;;;184.05;64.90;;;;;;;21.11;43.66;101835.69;4992293;28;20073;-77
2023/06/01 09:40:38;;;;;;;182.25;69.43;;;;;;;21.13;43.91;101829.47;5011988;28;20113;-77
2023/06/01 09:43:18;;;;;;;183.80;64.93;;;;;;;20.98;44.01;101833.63;5001609;28;20549;-77
2023/06/01 09:45:44;;;;;;;182.15;68.85;;;;;;;20.88;44.27;101830.50;5001654;28;20033;-78
2023/06/01 09:48:18;;;;;;;181.10;65.85;;;;;;;20.83;44.48;101829.81;4978643;28;20017;-75
2023/06/01 09:50:43;;;;;;;199.70;68.47;;;;;;;20.83;44.54;101822.72;4990252;28;20032;-75
2023/06/01 09:53:09;;;;;;;182.68;65.18;;;;;;;20.85;44.37;101822.69;5014044;28;20030;-77
2023/06/01 09:55:34;;;;;;;185.05;66.03;;;;;;;20.80;44.90;101820.19;4973484;28;20136;-77
2023/06/01 09:58:19;;;;;;;192.10;66.97;;;;;;;20.77;44.78;101820.31;4990573;28;20034;-76
2023/06/01 10:00:48;;;;;;;;;;;;;;;20.73;44.93;101822.22;5011006;28;20030;-77
2023/06/01 10:03:15;;;;;;;198.50;67.45;;;;;;;20.65;45.18;101819.00;4981481;28;19997;-77
2023/06/01 10:05:40;;;;;;;203.70;69.63;;;;;;;20.58;45.11;101818.38;4989341;28;20032;-77
2023/06/01 10:08:06;;;;;;;180.75;65.18;;;;;;;20.53;45.33;101814.19;4999198;28;20475;-77
2023/06/01 10:10:32;;;;;;;188.50;66.47;;;;;;;20.46;45.67;101813.56;4995974;28;20097;-77
2023/06/01 10:12:58;;;;;;;184.18;70.70;;;;;;;20.40;45.78;101813.84;4974802;28;20032;-77
2023/06/01 10:15:23;;;;;;;179.60;66.45;;;;;;;20.40;45.47;101808.53;4992982;28;20392;-77
2023/06/01 10:17:49;;;;;;;179.00;64.55;;;;;;;20.39;45.60;101817.41;4998660;28;20041;-77
2023/06/01 10:20:15;;;;;;;181.15;63.65;;;;;;;20.38;45.80;101813.91;5007358;28;20412;-77
2023/06/01 10:22:44;;;;;;;181.00;63.88;;;;;;;20.40;45.62;101803.22;5008057;28;20082;-77
2023/06/01 10:25:12;;;;;;;180.13;64.10;;;;;;;20.40;45.41;101804.06;4989534;28;20481;-77
2023/06/01 10:27:45;;;;;;;187.30;64.05;;;;;;;20.41;45.68;101805.81;4991061;28;20037;-77
2023/06/01 10:30:11;;;;;;;189.63;65.80;;;;;;;20.41;45.45;101821.72;4990623;28;20034;-77
2023/06/01 10:32:37;;;;;;;187.90;64.90;;;;;;;20.42;45.45;101815.50;5009129;28;20029;-77
2023/06/01 10:35:06;;;;;;;172.20;61.95;;;;;;;20.40;45.49;101822.66;4994731;28;20323;-78
2023/06/01 10:37:32;;;;;;;192.02;65.30;;;;;;;20.34;45.68;101814.94;4990919;28;20026;-77
2023/06/01 10:40:16;;;;;;;181.95;65.78;;;;;;;20.41;45.56;101812.88;4994234;28;20044;-77
2023/06/01 10:42:42;;;;;;;187.68;66.72;;;;;;;20.49;45.27;101818.78;5004648;28;20029;-77
2023/06/01 10:45:08;;;;;;;195.55;67.30;;;;;;;20.56;45.08;101817.59;4989005;28;20038;-77
2023/06/01 10:47:33;;;;;;;200.52;67.47;;;;;;;20.68;44.88;101808.31;4994475;28;20026;-77
2023/06/01 10:49:58;;;;;;;181.00;64.35;;;;;;;20.74;44.58;101818.66;4989887;28;20129;-78
2023/06/01 10:52:38;;;;;;;234.02;71.43;;;;;;;20.84;44.50;101819.13;4991964;28;20089;-78
2023/06/01 10:55:06;;;;;;;183.55;63.88;;;;;;;20.94;44.22;101815.19;4991415;28;20121;-77
2023/06/01 10:57:35;;;;;;;184.40;64.38;;;;;;;20.96;43.91;101811.59;4992601;28;20029;-77
2023/06/01 11:00:24;;;;;;;183.15;65.00;;;;;;;20.98;44.06;101815.91;5007926;28;20022;-76
2023/06/01 11:03:03;;;;;;;180.60;63.83;;;;;;;20.99;44.13;101814.97;4994848;28;20491;-77